KESWICK RESERVOIR (KES)

Elevation: 596' · SACRAMENTO R basin · Operator: US Bureau of Reclamation

Provisional data, subject to change.
Query executed Thursday at 19:31:18   clock

Select a sensor type for a plot of data.
Note: Reservoir Flows are daily averages.

Earlier

Date RES ELE    STORAGE    RES CHG    OUTFLOW    INFLOW   
 FEET   AF   AF   CFS   CFS  
06/03/2015 581.39 20329 -506 7078 6828
06/04/2015 582.55 21014 685 7037 7384
06/05/2015 584.36 22112 1098 7080 7636
06/06/2015 584.16 21989 -123 7084 7028
06/07/2015 583.64 21671 -318 7087 6935
06/08/2015 585.38 22746 1075 7026 7574
06/09/2015 585.11 22576 -170 7023 6943
06/10/2015 583.53 21605 -971 7031 6547
06/11/2015 582.93 21241 -364 6997 6820
06/12/2015 581.42 20346 -895 6977 6534
06/13/2015 582.28 20853 507 6973 7236
06/14/2015 581.70 20510 -343 6931 6766
06/15/2015 583.44 21550 1040 6887 7418
06/16/2015 584.33 22094 544 6879 7161
06/17/2015 584.16 21989 -105 6894 6849
06/18/2015 583.77 21750 -239 6934 6822
06/19/2015 585.06 22545 795 6929 7338
06/20/2015 584.61 22266 -279 6929 6796
06/21/2015 583.69 21702 -564 6929 6650
06/22/2015 585.70 22947 1245 6926 7562
06/23/2015 585.22 22645 -302 6924 6779
06/24/2015 585.31 22702 57 6923 6958
06/25/2015 584.96 22482 -220 7024 6921
06/26/2015 585.25 22664 182 7035 7135
06/27/2015 585.25 22664 0 7048 7056
06/28/2015 585.51 22827 163 7059 7148
06/29/2015 586.19 23256 429 7073 7296
06/30/2015 585.21 22639 -617 7081 6777
07/01/2015 583.18 21392 -1247 7095 6471
07/02/2015 -- -- -- -- --

Later | Latest

Warning! This data is preliminary and subject to revision.

Show KES Map | Plot KES Data | 1 Month KES Data | Real-Time KES Data | KES Info